Time;durP1;ratioP1;P1;durP2;ratioP2;P2;SDS_P1;SDS_P2;PMS_P1;PMS_P2;Temp;Humidity;BMP_temperature;BMP_pressure;BME280_temperature;BME280_humidity;BME280_pressure;Samples;Min_cycle;Max_cycle;Signal;HPM_P1;HPM_P2
2021/10/28 00:13:51;;;;;;;24.60;21.23;;;;;;;;;;5034640;28;20220;-69
2021/10/28 00:16:21;;;;;;;25.90;19.70;;;;;;;;;;5033427;28;20308;-69
2021/10/28 00:18:50;;;;;;;25.97;20.43;;;;;;;;;;5033030;28;20730;-69
2021/10/28 00:21:16;;;;;;;25.57;21.23;;;;;;;;;;5033759;28;20209;-69
2021/10/28 00:23:46;;;;;;;26.27;21.77;;;;;;;;;;5033356;28;20238;-69
2021/10/28 00:26:14;;;;;;;26.50;21.97;;;;;;;;;;5034009;28;20231;-69
2021/10/28 00:28:41;;;;;;;25.60;20.87;;;;;;;;;;5035606;28;20283;-69
2021/10/28 00:31:09;;;;;;;25.40;21.00;;;;;;;;;;5034164;28;20222;-69
2021/10/28 00:33:36;;;;;;;26.77;21.17;;;;;;;;;;5032317;28;20219;-69
2021/10/28 00:36:04;;;;;;;23.23;19.37;;;;;;;;;;5033405;28;20221;-69
2021/10/28 00:38:32;;;;;;;27.20;20.63;;;;;;;;;;5031628;28;20684;-70
2021/10/28 00:40:59;;;;;;;26.00;21.57;;;;;;;;;;5034388;28;20238;-69
2021/10/28 00:43:27;;;;;;;28.03;22.00;;;;;;;;;;5035173;28;20321;-69
2021/10/28 00:45:54;;;;;;;24.60;20.70;;;;;;;;;;5034061;28;20221;-69
2021/10/28 00:48:21;;;;;;;25.13;20.53;;;;;;;;;;5033802;28;20228;-69
2021/10/28 00:50:51;;;;;;;24.47;20.67;;;;;;;;;;5032751;28;20757;-70
2021/10/28 00:53:18;;;;;;;27.77;21.00;;;;;;;;;;5032920;28;20631;-70
2021/10/28 00:55:45;;;;;;;30.00;22.67;;;;;;;;;;5032924;28;20636;-69
2021/10/28 00:58:11;;;;;;;24.77;19.80;;;;;;;;;;5032038;28;20222;-69
2021/10/28 01:00:39;;;;;;;23.57;20.67;;;;;;;;;;5035212;28;20761;-69
2021/10/28 01:03:06;;;;;;;25.73;20.90;;;;;;;;;;5038147;28;20274;-70
2021/10/28 01:05:32;;;;;;;30.13;21.40;;;;;;;;;;5038529;28;20298;-70
2021/10/28 01:08:00;;;;;;;26.57;22.07;;;;;;;;;;5037331;28;20220;-69
2021/10/28 01:10:26;;;;;;;26.00;20.87;;;;;;;;;;5037396;28;20208;-70
2021/10/28 01:12:52;;;;;;;26.40;21.83;;;;;;;;;;5036625;28;20217;-70
2021/10/28 01:15:19;;;;;;;25.40;20.67;;;;;;;;;;5036104;28;20213;-69
2021/10/28 01:17:47;;;;;;;23.60;20.73;;;;;;;;;;5036662;28;20258;-69
2021/10/28 01:20:14;;;;;;;23.77;21.17;;;;;;;;;;5037127;28;20224;-70
2021/10/28 01:22:43;;;;;;;27.53;20.70;;;;;;;;;;5036852;28;20224;-70
2021/10/28 01:25:10;;;;;;;26.27;21.63;;;;;;;;;;5037366;28;20228;-70
2021/10/28 01:27:37;;;;;;;29.23;21.60;;;;;;;;;;5035896;28;20271;-69
2021/10/28 01:30:05;;;;;;;29.97;23.60;;;;;;;;;;5035985;28;20216;-70
2021/10/28 01:32:33;;;;;;;24.53;20.43;;;;;;;;;;5036429;28;20263;-70
2021/10/28 01:34:59;;;;;;;27.77;21.67;;;;;;;;;;5035702;28;20233;-70
2021/10/28 01:37:27;;;;;;;25.20;19.70;;;;;;;;;;5036065;28;20214;-70
2021/10/28 01:39:53;;;;;;;26.37;20.53;;;;;;;;;;5036989;28;20232;-70
2021/10/28 01:42:20;;;;;;;27.53;21.97;;;;;;;;;;5038300;28;20201;-70
2021/10/28 01:44:46;;;;;;;27.20;21.67;;;;;;;;;;5035828;28;20221;-70
2021/10/28 01:47:14;;;;;;;26.57;22.00;;;;;;;;;;5034490;28;20218;-70
2021/10/28 01:49:40;;;;;;;25.53;21.30;;;;;;;;;;5036577;28;20227;-70
2021/10/28 01:52:11;;;;;;;24.63;19.33;;;;;;;;;;5036600;28;20210;-70
2021/10/28 01:54:39;;;;;;;24.93;20.30;;;;;;;;;;5034934;28;20233;-70
2021/10/28 01:57:15;;;;;;;24.60;20.13;;;;;;;;;;5034620;28;20217;-70
2021/10/28 01:59:41;;;;;;;26.30;21.30;;;;;;;;;;5035758;28;20208;-70
2021/10/28 02:02:08;;;;;;;26.67;20.17;;;;;;;;;;5036312;28;20225;-69
2021/10/28 02:04:34;;;;;;;23.70;20.07;;;;;;;;;;5035178;28;20241;-69
2021/10/28 02:07:01;;;;;;;25.90;21.00;;;;;;;;;;5036267;28;20347;-70
2021/10/28 02:09:28;;;;;;;27.93;19.97;;;;;;;;;;5036249;28;20238;-70
2021/10/28 02:11:55;;;;;;;24.70;21.67;;;;;;;;;;5035516;28;20219;-69
2021/10/28 02:14:22;;;;;;;27.43;21.67;;;;;;;;;;5035651;28;20208;-69
2021/10/28 02:16:48;;;;;;;24.83;19.63;;;;;;;;;;5035894;28;20210;-70
2021/10/28 02:19:15;;;;;;;26.20;19.10;;;;;;;;;;5037267;28;20293;-69
2021/10/28 02:21:41;;;;;;;24.17;20.60;;;;;;;;;;5036362;28;21025;-70
2021/10/28 02:24:08;;;;;;;27.53;19.80;;;;;;;;;;5034573;28;20580;-70
2021/10/28 02:26:34;;;;;;;24.43;18.93;;;;;;;;;;5034133;28;20249;-70
2021/10/28 02:29:03;;;;;;;24.63;20.17;;;;;;;;;;5032983;28;20229;-70
2021/10/28 02:31:31;;;;;;;22.83;19.47;;;;;;;;;;5037026;28;20263;-70
2021/10/28 02:33:57;;;;;;;23.57;19.67;;;;;;;;;;5035183;28;20227;-69
2021/10/28 02:36:24;;;;;;;28.77;20.73;;;;;;;;;;5036850;28;20271;-70
2021/10/28 02:38:50;;;;;;;23.23;20.10;;;;;;;;;;5035690;28;20311;-70
2021/10/28 02:41:17;;;;;;;24.27;19.50;;;;;;;;;;5037640;28;20228;-70
2021/10/28 02:43:43;;;;;;;22.87;20.20;;;;;;;;;;5035021;28;20635;-70
2021/10/28 02:46:11;;;;;;;24.33;19.47;;;;;;;;;;5034258;28;21142;-70
2021/10/28 02:48:37;;;;;;;21.77;18.37;;;;;;;;;;5034383;28;20298;-70
2021/10/28 02:51:04;;;;;;;23.63;18.70;;;;;;;;;;5037691;28;20611;-70
2021/10/28 02:53:30;;;;;;;20.00;17.77;;;;;;;;;;5034457;28;20277;-70
2021/10/28 02:55:57;;;;;;;23.00;18.33;;;;;;;;;;5036680;28;20688;-70
2021/10/28 02:58:23;;;;;;;25.43;18.93;;;;;;;;;;5036015;28;20631;-70
2021/10/28 03:00:49;;;;;;;25.57;18.60;;;;;;;;;;5036186;28;20279;-70
2021/10/28 03:03:17;;;;;;;23.33;17.60;;;;;;;;;;5034810;28;20324;-70
2021/10/28 03:05:44;;;;;;;20.33;18.17;;;;;;;;;;5034863;28;20280;-70
2021/10/28 03:08:11;;;;;;;20.30;16.80;;;;;;;;;;5035610;28;20268;-70
2021/10/28 03:10:37;;;;;;;19.83;17.20;;;;;;;;;;5033768;28;20213;-70
2021/10/28 03:13:03;;;;;;;23.80;18.00;;;;;;;;;;5035609;28;20206;-70
2021/10/28 03:15:34;;;;;;;18.90;16.67;;;;;;;;;;5035364;28;20214;-70
2021/10/28 03:18:20;;;;;;;21.93;17.67;;;;;;;;;;5035018;28;20291;-70
2021/10/28 03:26:15;;;;;;;21.80;16.93;;;;;;;;;;5033426;28;20273;-70
2021/10/28 03:28:42;;;;;;;21.10;18.43;;;;;;;;;;5034470;28;20266;-70
2021/10/28 03:31:08;;;;;;;21.87;17.40;;;;;;;;;;5036590;28;20215;-70
2021/10/28 03:33:37;;;;;;;19.63;17.07;;;;;;;;;;5034367;28;20307;-70
2021/10/28 03:36:10;;;;;;;19.60;15.93;;;;;;;;;;5034590;28;20274;-70
2021/10/28 03:38:48;;;;;;;20.27;16.30;;;;;;;;;;5036344;28;20248;-70
2021/10/28 03:47:24;;;;;;;20.73;16.43;;;;;;;;;;4997128;28;20218;-70
2021/10/28 03:58:33;;;;;;;17.57;15.23;;;;;;;;;;4995346;28;21037;-70
2021/10/28 04:01:23;;;;;;;19.30;15.97;;;;;;;;;;5033982;28;20217;-70
2021/10/28 04:04:16;;;;;;;20.83;16.07;;;;;;;;;;5036446;28;20237;-70
2021/10/28 04:17:50;;;;;;;20.83;16.73;;;;;;;;;;5032671;28;20686;-70
2021/10/28 04:20:33;;;;;;;20.77;16.47;;;;;;;;;;5033640;28;20232;-70
2021/10/28 04:31:13;;;;;;;19.57;16.83;;;;;;;;;;5033487;28;20267;-73
2021/10/28 04:33:42;;;;;;;24.10;15.77;;;;;;;;;;5033249;28;20583;-73
2021/10/28 04:36:08;;;;;;;20.90;16.03;;;;;;;;;;5031527;28;20219;-73
2021/10/28 04:38:35;;;;;;;21.17;16.60;;;;;;;;;;5033555;28;20228;-73
2021/10/28 04:41:02;;;;;;;21.77;14.90;;;;;;;;;;5034261;28;20220;-73
2021/10/28 04:43:29;;;;;;;17.40;14.63;;;;;;;;;;5032444;28;20238;-73
2021/10/28 04:45:55;;;;;;;17.37;15.37;;;;;;;;;;5031431;28;20661;-73
2021/10/28 04:48:22;;;;;;;16.43;13.63;;;;;;;;;;5033557;28;20222;-73
2021/10/28 04:50:48;;;;;;;18.97;16.00;;;;;;;;;;5032868;28;20266;-73
2021/10/28 04:53:15;;;;;;;19.73;15.97;;;;;;;;;;5030918;28;20243;-73
2021/10/28 04:55:41;;;;;;;20.60;16.60;;;;;;;;;;5032346;28;20574;-73
2021/10/28 04:58:09;;;;;;;19.20;15.23;;;;;;;;;;5033804;28;20216;-73
2021/10/28 05:00:36;;;;;;;21.20;15.33;;;;;;;;;;5033176;28;20215;-73
2021/10/28 05:03:02;;;;;;;18.70;14.67;;;;;;;;;;5033321;28;20624;-73
2021/10/28 05:05:29;;;;;;;20.13;14.17;;;;;;;;;;5032407;28;20290;-73
2021/10/28 05:07:55;;;;;;;15.83;13.63;;;;;;;;;;5032198;28;20600;-73
2021/10/28 05:10:21;;;;;;;17.00;13.97;;;;;;;;;;5032345;28;21037;-73
2021/10/28 05:12:48;;;;;;;19.47;13.97;;;;;;;;;;5031189;28;20216;-73
2021/10/28 05:15:15;;;;;;;18.50;15.10;;;;;;;;;;5033405;28;20263;-73
2021/10/28 05:17:42;;;;;;;20.13;14.87;;;;;;;;;;5031634;28;20588;-73
2021/10/28 05:20:10;;;;;;;17.17;14.83;;;;;;;;;;5031565;28;20232;-73
2021/10/28 05:22:36;;;;;;;20.77;15.70;;;;;;;;;;5033307;28;20705;-73
2021/10/28 05:25:03;;;;;;;18.13;13.87;;;;;;;;;;5033537;28;20313;-73
2021/10/28 05:27:30;;;;;;;15.73;14.10;;;;;;;;;;5031360;28;20211;-73
2021/10/28 05:29:56;;;;;;;18.93;14.70;;;;;;;;;;5031867;28;20655;-73
2021/10/28 05:32:24;;;;;;;18.03;13.57;;;;;;;;;;5032048;28;20220;-74
2021/10/28 05:34:52;;;;;;;19.53;14.33;;;;;;;;;;5033988;28;20278;-73
2021/10/28 05:37:19;;;;;;;17.93;14.13;;;;;;;;;;5033237;28;20223;-73
2021/10/28 05:39:46;;;;;;;18.60;14.60;;;;;;;;;;5033061;28;20241;-73
2021/10/28 05:42:12;;;;;;;19.73;15.27;;;;;;;;;;5031231;28;20612;-73
2021/10/28 05:44:38;;;;;;;20.87;15.33;;;;;;;;;;5033007;28;20233;-73
2021/10/28 05:47:05;;;;;;;16.97;13.93;;;;;;;;;;5036315;28;20266;-74
2021/10/28 05:49:32;;;;;;;18.60;15.53;;;;;;;;;;5037576;28;20279;-73
2021/10/28 05:51:59;;;;;;;22.00;15.50;;;;;;;;;;5036578;28;20280;-73
2021/10/28 05:54:26;;;;;;;17.27;14.33;;;;;;;;;;5037602;28;20227;-73
2021/10/28 05:56:52;;;;;;;16.93;14.67;;;;;;;;;;5035295;28;20217;-73
2021/10/28 05:59:19;;;;;;;19.13;14.63;;;;;;;;;;5034334;28;20216;-73
2021/10/28 06:01:45;;;;;;;17.20;14.23;;;;;;;;;;5035469;28;20262;-73
2021/10/28 06:04:11;;;;;;;22.13;16.07;;;;;;;;;;5034244;28;20233;-73
2021/10/28 06:06:39;;;;;;;21.23;15.23;;;;;;;;;;5035466;28;20307;-73
2021/10/28 06:09:05;;;;;;;17.20;15.30;;;;;;;;;;5034168;28;20570;-74
2021/10/28 06:11:32;;;;;;;21.10;15.27;;;;;;;;;;5033554;28;20215;-73
2021/10/28 06:13:58;;;;;;;20.90;15.70;;;;;;;;;;5032370;28;20203;-73
2021/10/28 06:16:26;;;;;;;21.20;15.63;;;;;;;;;;5032884;28;20223;-73
2021/10/28 06:18:53;;;;;;;19.90;15.97;;;;;;;;;;5032515;28;20312;-74
2021/10/28 06:21:24;;;;;;;20.40;15.63;;;;;;;;;;5032885;28;20211;-73
2021/10/28 06:23:52;;;;;;;18.90;16.10;;;;;;;;;;5032142;28;20231;-73
2021/10/28 06:26:18;;;;;;;17.47;15.00;;;;;;;;;;5033309;28;20218;-74
2021/10/28 06:28:45;;;;;;;19.73;16.97;;;;;;;;;;5032121;28;20235;-74
2021/10/28 06:31:13;;;;;;;24.67;17.57;;;;;;;;;;5031902;28;20211;-74
2021/10/28 06:33:47;;;;;;;26.70;18.20;;;;;;;;;;5033975;28;20240;-73
2021/10/28 06:36:18;;;;;;;19.73;16.40;;;;;;;;;;5032736;28;20214;-74
2021/10/28 06:38:45;;;;;;;23.13;17.80;;;;;;;;;;5032131;28;20318;-73
2021/10/28 06:41:13;;;;;;;18.50;16.17;;;;;;;;;;5031101;28;20209;-73
2021/10/28 06:43:39;;;;;;;21.53;16.07;;;;;;;;;;5034317;28;20212;-73
2021/10/28 06:46:06;;;;;;;26.90;17.37;;;;;;;;;;5032839;28;20291;-74
2021/10/28 06:48:32;;;;;;;23.67;16.83;;;;;;;;;;5032214;28;20222;-73
2021/10/28 06:51:00;;;;;;;24.77;16.73;;;;;;;;;;5035439;28;20777;-73
2021/10/28 06:53:30;;;;;;;20.67;16.73;;;;;;;;;;5030827;28;20224;-73
2021/10/28 06:56:05;;;;;;;18.53;16.30;;;;;;;;;;5032803;28;20557;-73
2021/10/28 07:04:01;;;;;;;22.80;17.77;;;;;;;;;;5033541;28;20265;-73
2021/10/28 07:06:29;;;;;;;23.20;16.57;;;;;;;;;;5032307;28;20242;-74
2021/10/28 07:08:58;;;;;;;20.47;16.33;;;;;;;;;;5030176;28;20330;-73
2021/10/28 07:11:28;;;;;;;24.93;19.50;;;;;;;;;;5032394;28;20221;-72
2021/10/28 07:13:57;;;;;;;21.67;16.37;;;;;;;;;;5032188;28;20690;-72
2021/10/28 07:16:40;;;;;;;21.87;17.23;;;;;;;;;;5032005;28;20681;-74
2021/10/28 07:19:35;;;;;;;24.83;17.90;;;;;;;;;;5031268;28;20249;-74
2021/10/28 07:22:21;;;;;;;20.73;17.07;;;;;;;;;;5031926;28;20322;-74
2021/10/28 07:24:58;;;;;;;20.17;16.10;;;;;;;;;;5032318;28;20247;-74
2021/10/28 07:27:52;;;;;;;23.43;16.53;;;;;;;;;;5032690;28;20210;-74
2021/10/28 07:30:40;;;;;;;20.77;17.03;;;;;;;;;;5030271;28;20208;-74
2021/10/28 07:36:01;;;;;;;19.53;17.23;;;;;;;;;;5031270;28;20316;-74
2021/10/28 07:38:46;;;;;;;19.83;16.37;;;;;;;;;;5032019;28;20270;-74
2021/10/28 07:55:38;;;;;;;19.63;15.50;;;;;;;;;;5031818;28;20250;-75
2021/10/28 08:17:43;;;;;;;17.50;15.63;;;;;;;;;;5031747;28;20644;-73
2021/10/28 08:20:16;;;;;;;21.20;15.57;;;;;;;;;;5029982;28;20459;-73
2021/10/28 08:22:47;;;;;;;17.53;14.40;;;;;;;;;;5030371;28;20219;-73
2021/10/28 08:30:56;;;;;;;17.37;13.90;;;;;;;;;;4989864;28;20253;-73
2021/10/28 08:33:23;;;;;;;16.60;13.43;;;;;;;;;;5009397;28;20209;-73
2021/10/28 08:35:56;;;;;;;16.37;14.07;;;;;;;;;;5032063;28;20667;-73
2021/10/28 08:38:23;;;;;;;17.13;14.20;;;;;;;;;;5029536;28;20241;-73
2021/10/28 08:40:54;;;;;;;15.57;13.67;;;;;;;;;;5030286;28;20225;-73
2021/10/28 08:43:21;;;;;;;14.73;13.13;;;;;;;;;;5032391;28;20214;-73
2021/10/28 08:45:50;;;;;;;17.30;13.57;;;;;;;;;;5029894;28;20616;-73
2021/10/28 08:48:17;;;;;;;16.07;14.00;;;;;;;;;;5032280;28;20207;-73
2021/10/28 08:50:48;;;;;;;16.57;13.50;;;;;;;;;;5029987;28;20234;-73
2021/10/28 08:53:28;;;;;;;15.17;13.53;;;;;;;;;;5030419;28;20862;-73
2021/10/28 08:55:57;;;;;;;16.50;14.00;;;;;;;;;;5030344;28;20210;-73
2021/10/28 09:24:07;;;;;;;11.90;10.70;;;;;;;;;;5034974;28;20569;-72
2021/10/28 09:29:43;;;;;;;12.70;11.00;;;;;;;;;;5068570;27;21124;-73
2021/10/28 09:32:19;;;;;;;13.23;10.67;;;;;;;;;;5060053;28;20912;-72
2021/10/28 09:35:09;;;;;;;12.37;10.90;;;;;;;;;;5060406;28;20333;-72
2021/10/28 09:43:43;;;;;;;12.53;10.57;;;;;;;;;;5018712;28;20246;-72
2021/10/28 09:46:36;;;;;;;11.40;10.23;;;;;;;;;;5060346;28;20214;-72
2021/10/28 09:51:55;;;;;;;12.13;10.63;;;;;;;;;;5061369;28;20237;-71
2021/10/28 09:54:31;;;;;;;11.43;10.23;;;;;;;;;;5059411;28;20770;-71
2021/10/28 09:59:51;;;;;;;12.77;10.30;;;;;;;;;;5059846;28;20217;-72
2021/10/28 10:02:23;;;;;;;10.60;9.43;;;;;;;;;;5059434;28;20201;-72
2021/10/28 10:04:50;;;;;;;10.93;9.83;;;;;;;;;;5059252;28;20327;-73
2021/10/28 10:07:19;;;;;;;12.17;10.50;;;;;;;;;;5057430;28;20654;-72
2021/10/28 10:09:47;;;;;;;12.07;10.10;;;;;;;;;;5059644;28;20681;-72
2021/10/28 10:12:15;;;;;;;10.90;9.80;;;;;;;;;;5058742;28;20746;-72
2021/10/28 10:14:43;;;;;;;10.63;9.53;;;;;;;;;;5058419;28;20297;-72
2021/10/28 10:17:10;;;;;;;11.33;9.47;;;;;;;;;;5058320;28;20275;-71
2021/10/28 10:19:42;;;;;;;9.67;8.67;;;;;;;;;;5059005;28;20234;-72
2021/10/28 10:25:05;;;;;;;10.83;9.07;;;;;;;;;;5052785;28;20240;-71
2021/10/28 10:28:11;;;;;;;9.63;8.73;;;;;;;;;;5057485;28;20233;-71
2021/10/28 12:17:19;;;;;;;5.93;4.73;;;;;;;;;;5044466;28;20267;-75
2021/10/28 12:20:00;;;;;;;12.07;5.53;;;;;;;;;;5042616;28;20299;-73
2021/10/28 12:23:12;;;;;;;6.47;4.70;;;;;;;;;;5040798;28;20536;-73
2021/10/28 12:25:48;;;;;;;8.80;5.20;;;;;;;;;;5042668;28;20241;-73
2021/10/28 12:45:06;;;;;;;7.60;5.40;;;;;;;;;;5040749;28;20211;-72
2021/10/28 12:47:49;;;;;;;6.73;5.23;;;;;;;;;;5041767;28;20229;-73
2021/10/28 13:04:09;;;;;;;8.90;5.53;;;;;;;;;;5040619;28;20269;-72
2021/10/28 13:50:50;;;;;;;8.80;7.97;;;;;;;;;;5042191;28;20374;-73
2021/10/28 13:56:43;;;;;;;9.77;8.00;;;;;;;;;;5040882;28;20220;-73
2021/10/28 14:19:09;;;;;;;9.37;7.43;;;;;;;;;;5044696;28;20212;-73
2021/10/28 14:22:12;;;;;;;10.70;8.70;;;;;;;;;;5046938;28;20208;-73
2021/10/28 14:34:00;;;;;;;12.57;8.80;;;;;;;;;;5045393;28;20228;-74
2021/10/28 14:37:04;;;;;;;13.03;9.13;;;;;;;;;;5046124;28;20222;-74
2021/10/28 15:29:11;;;;;;;11.83;8.43;;;;;;;;;;4963174;28;20239;-74
2021/10/28 15:37:08;;;;;;;16.17;8.97;;;;;;;;;;5044021;28;20557;-74
2021/10/28 15:39:39;;;;;;;11.70;8.07;;;;;;;;;;5043876;28;20233;-74
2021/10/28 15:51:01;;;;;;;14.80;8.97;;;;;;;;;;5042708;28;20307;-74
2021/10/28 16:23:50;;;;;;;11.57;7.80;;;;;;;;;;5042574;28;20262;-74
2021/10/28 16:26:18;;;;;;;16.83;9.27;;;;;;;;;;5043853;28;20595;-75
2021/10/28 16:28:44;;;;;;;12.07;9.03;;;;;;;;;;5042895;28;20234;-76
2021/10/28 16:31:14;;;;;;;11.97;9.43;;;;;;;;;;5042197;28;20210;-76
2021/10/28 16:33:41;;;;;;;10.63;8.10;;;;;;;;;;5042521;28;20579;-74
2021/10/28 16:36:07;;;;;;;14.30;8.80;;;;;;;;;;5043756;28;20211;-74
2021/10/28 16:38:34;;;;;;;13.00;8.23;;;;;;;;;;5043388;28;20760;-74
2021/10/28 16:41:00;;;;;;;12.03;8.03;;;;;;;;;;5043808;28;20253;-74
2021/10/28 16:43:28;;;;;;;12.80;8.37;;;;;;;;;;5044261;28;20211;-74
2021/10/28 16:45:55;;;;;;;13.17;8.37;;;;;;;;;;5044773;28;20206;-74
2021/10/28 16:48:21;;;;;;;11.60;8.67;;;;;;;;;;5041492;28;20246;-74
2021/10/28 16:50:47;;;;;;;10.67;8.43;;;;;;;;;;5042488;28;20257;-74
2021/10/28 16:53:14;;;;;;;12.37;8.30;;;;;;;;;;5043886;28;20235;-74
2021/10/28 16:55:41;;;;;;;11.03;8.50;;;;;;;;;;5043381;28;20246;-74
2021/10/28 16:58:09;;;;;;;12.60;8.70;;;;;;;;;;5041790;28;20253;-74
2021/10/28 17:00:37;;;;;;;11.87;7.80;;;;;;;;;;5042165;28;20218;-74
2021/10/28 17:03:03;;;;;;;9.90;8.90;;;;;;;;;;5044627;28;20214;-74
2021/10/28 17:05:30;;;;;;;13.43;8.97;;;;;;;;;;5042843;28;20268;-75
2021/10/28 17:07:56;;;;;;;11.93;8.90;;;;;;;;;;5043650;28;20221;-74
2021/10/28 17:10:23;;;;;;;9.53;8.53;;;;;;;;;;5043277;28;20323;-75
2021/10/28 17:12:49;;;;;;;9.90;8.90;;;;;;;;;;5044052;28;20214;-74
2021/10/28 17:15:15;;;;;;;9.97;8.30;;;;;;;;;;5042040;28;20869;-74
2021/10/28 17:17:44;;;;;;;9.50;8.00;;;;;;;;;;5043546;28;20217;-74
2021/10/28 17:20:12;;;;;;;11.17;8.03;;;;;;;;;;5043528;28;20235;-74
2021/10/28 17:22:38;;;;;;;10.83;8.27;;;;;;;;;;5042985;28;20211;-74
2021/10/28 17:25:08;;;;;;;10.07;7.93;;;;;;;;;;5043366;28;20351;-74
2021/10/28 17:27:35;;;;;;;10.00;8.40;;;;;;;;;;5042441;28;20236;-74
2021/10/28 17:30:04;;;;;;;10.47;8.80;;;;;;;;;;5042497;28;20218;-74
2021/10/28 17:32:30;;;;;;;11.13;8.80;;;;;;;;;;5042069;28;20206;-74
2021/10/28 17:34:58;;;;;;;13.03;9.43;;;;;;;;;;5043078;28;20226;-74
2021/10/28 17:37:25;;;;;;;9.53;8.53;;;;;;;;;;5043280;28;20273;-75
2021/10/28 17:39:51;;;;;;;12.83;9.03;;;;;;;;;;5045007;28;20893;-75
2021/10/28 17:42:18;;;;;;;11.60;8.90;;;;;;;;;;5042683;28;20543;-74
2021/10/28 17:44:51;;;;;;;11.60;8.77;;;;;;;;;;5043263;28;20751;-75
2021/10/28 17:47:17;;;;;;;10.53;9.13;;;;;;;;;;5042901;28;20268;-75
2021/10/28 17:49:44;;;;;;;12.40;9.33;;;;;;;;;;5044854;28;20238;-75
2021/10/28 17:52:12;;;;;;;12.23;9.17;;;;;;;;;;5046042;28;20832;-75
2021/10/28 17:54:39;;;;;;;11.90;9.40;;;;;;;;;;5046749;28;20234;-75
2021/10/28 17:57:06;;;;;;;11.53;10.10;;;;;;;;;;5048146;28;20215;-75
2021/10/28 17:59:33;;;;;;;11.57;9.70;;;;;;;;;;5047430;28;20214;-75
2021/10/28 18:01:59;;;;;;;13.63;9.97;;;;;;;;;;5046781;28;20816;-75
2021/10/28 18:04:26;;;;;;;12.67;9.60;;;;;;;;;;5046026;28;20839;-75
2021/10/28 18:06:52;;;;;;;10.57;8.83;;;;;;;;;;5048681;28;20214;-75
2021/10/28 18:09:23;;;;;;;13.20;9.60;;;;;;;;;;5044571;28;20249;-75
2021/10/28 18:11:51;;;;;;;11.37;9.47;;;;;;;;;;5046896;28;20257;-75
2021/10/28 18:14:18;;;;;;;9.93;8.90;;;;;;;;;;5047187;28;20301;-75
2021/10/28 18:16:45;;;;;;;11.37;9.20;;;;;;;;;;5047745;28;20214;-75
2021/10/28 18:19:12;;;;;;;12.77;9.10;;;;;;;;;;5045727;28;20229;-75
2021/10/28 18:21:42;;;;;;;12.20;9.77;;;;;;;;;;5045993;28;20712;-75
2021/10/28 18:24:09;;;;;;;11.93;8.93;;;;;;;;;;5046751;28;20238;-75
2021/10/28 18:26:37;;;;;;;11.20;9.60;;;;;;;;;;5047051;28;20249;-75
2021/10/28 18:29:05;;;;;;;12.10;9.23;;;;;;;;;;5044752;28;20238;-75
2021/10/28 18:31:31;;;;;;;11.37;9.47;;;;;;;;;;5046792;28;20287;-75
2021/10/28 18:33:59;;;;;;;11.13;10.13;;;;;;;;;;5046445;28;20299;-75
2021/10/28 18:36:25;;;;;;;10.63;9.57;;;;;;;;;;5045572;28;20221;-75
2021/10/28 18:38:52;;;;;;;14.77;10.10;;;;;;;;;;5046270;28;20250;-75
2021/10/28 18:41:20;;;;;;;10.20;9.20;;;;;;;;;;5046022;28;20223;-75
2021/10/28 18:43:48;;;;;;;16.50;9.97;;;;;;;;;;5046889;28;20210;-75
2021/10/28 18:46:17;;;;;;;10.87;9.73;;;;;;;;;;5045805;28;20269;-75
2021/10/28 18:48:44;;;;;;;11.97;9.57;;;;;;;;;;5045709;28;20586;-75
2021/10/28 18:51:11;;;;;;;10.43;9.30;;;;;;;;;;5046439;28;20575;-75
2021/10/28 18:53:40;;;;;;;11.80;9.70;;;;;;;;;;5046172;28;20275;-75
2021/10/28 18:56:06;;;;;;;11.43;8.80;;;;;;;;;;5044375;28;20209;-75
2021/10/28 18:58:33;;;;;;;10.33;8.57;;;;;;;;;;5044387;28;20221;-75
2021/10/28 19:01:01;;;;;;;10.50;8.97;;;;;;;;;;5044610;28;20711;-75
2021/10/28 19:03:28;;;;;;;10.03;9.00;;;;;;;;;;5044011;28;20612;-75
2021/10/28 19:05:56;;;;;;;11.60;8.80;;;;;;;;;;5044771;28;20241;-75
2021/10/28 19:08:23;;;;;;;11.73;8.67;;;;;;;;;;5045365;28;20258;-75
2021/10/28 19:10:50;;;;;;;9.70;8.60;;;;;;;;;;5043080;28;20229;-75
2021/10/28 19:13:17;;;;;;;9.60;8.60;;;;;;;;;;5043365;28;20225;-75
2021/10/28 19:15:43;;;;;;;11.43;8.43;;;;;;;;;;5045227;28;20221;-75
2021/10/28 19:18:11;;;;;;;8.87;7.97;;;;;;;;;;5045158;28;20208;-76
2021/10/28 19:20:38;;;;;;;10.73;8.63;;;;;;;;;;5044544;28;20242;-76
2021/10/28 19:23:05;;;;;;;9.77;7.70;;;;;;;;;;5045662;28;20217;-75
2021/10/28 19:25:32;;;;;;;10.23;9.00;;;;;;;;;;5045690;28;20225;-75
2021/10/28 19:27:58;;;;;;;12.13;8.63;;;;;;;;;;5045488;28;20245;-75
2021/10/28 19:30:29;;;;;;;10.70;8.40;;;;;;;;;;5043418;28;20600;-75
2021/10/28 19:32:59;;;;;;;10.83;8.57;;;;;;;;;;5044119;28;20700;-72
2021/10/28 19:35:30;;;;;;;11.33;8.37;;;;;;;;;;5045564;28;20669;-72
2021/10/28 19:38:03;;;;;;;9.27;8.37;;;;;;;;;;5045421;28;20216;-72
2021/10/28 19:40:38;;;;;;;9.83;8.20;;;;;;;;;;5044275;28;20309;-72
2021/10/28 19:46:10;;;;;;;10.17;8.20;;;;;;;;;;5046017;28;20228;-72
2021/10/28 19:48:37;;;;;;;9.67;8.30;;;;;;;;;;5046049;28;20234;-71
2021/10/28 19:51:05;;;;;;;8.30;7.50;;;;;;;;;;5044774;28;20283;-72
2021/10/28 19:53:32;;;;;;;9.30;8.40;;;;;;;;;;5044614;28;20947;-71
2021/10/28 19:56:08;;;;;;;11.87;7.33;;;;;;;;;;5045951;28;20214;-71
2021/10/28 19:58:35;;;;;;;11.13;8.67;;;;;;;;;;5045057;28;20228;-71
2021/10/28 20:01:07;;;;;;;10.17;8.47;;;;;;;;;;5043932;28;20744;-71
2021/10/28 20:03:46;;;;;;;10.17;8.33;;;;;;;;;;5043848;28;20910;-72
2021/10/28 20:06:39;;;;;;;11.53;7.60;;;;;;;;;;5044313;28;20661;-71
2021/10/28 20:14:41;;;;;;;11.00;7.57;;;;;;;;;;5022167;28;20229;-71
2021/10/28 20:20:06;;;;;;;10.73;7.33;;;;;;;;;;5045169;28;20237;-71
2021/10/28 20:22:34;;;;;;;11.40;8.27;;;;;;;;;;5045465;28;20241;-71
2021/10/28 20:25:00;;;;;;;10.03;7.53;;;;;;;;;;5045650;28;20234;-71
2021/10/28 20:27:27;;;;;;;8.73;7.83;;;;;;;;;;5045480;28;20315;-71
2021/10/28 20:29:55;;;;;;;9.70;7.97;;;;;;;;;;5044929;28;20320;-71
2021/10/28 20:32:22;;;;;;;9.03;7.80;;;;;;;;;;5043943;28;20215;-71
2021/10/28 20:34:52;;;;;;;10.07;7.70;;;;;;;;;;5045198;28;20314;-72
2021/10/28 20:37:19;;;;;;;9.57;7.80;;;;;;;;;;5044748;28;20282;-72
2021/10/28 20:39:48;;;;;;;11.33;8.63;;;;;;;;;;5045518;28;20331;-72
2021/10/28 20:42:17;;;;;;;10.23;8.90;;;;;;;;;;5044569;28;20737;-72
2021/10/28 20:44:45;;;;;;;10.63;8.47;;;;;;;;;;5044654;28;20222;-72
2021/10/28 20:47:12;;;;;;;13.57;8.07;;;;;;;;;;5044107;28;20661;-71
2021/10/28 20:49:39;;;;;;;9.70;8.23;;;;;;;;;;5044543;28;20237;-72
2021/10/28 20:52:07;;;;;;;11.53;8.53;;;;;;;;;;5045207;28;20214;-71
2021/10/28 20:54:33;;;;;;;9.23;8.20;;;;;;;;;;5045284;28;20320;-73
2021/10/28 20:57:02;;;;;;;12.53;8.83;;;;;;;;;;5045439;28;20241;-71
2021/10/28 20:59:29;;;;;;;12.27;8.43;;;;;;;;;;5045628;28;20214;-72
2021/10/28 21:01:56;;;;;;;9.53;8.60;;;;;;;;;;5045194;28;20329;-71
2021/10/28 21:04:23;;;;;;;16.63;9.43;;;;;;;;;;5045022;28;20229;-72
2021/10/28 21:06:49;;;;;;;9.77;8.43;;;;;;;;;;5045359;28;20308;-71
2021/10/28 21:09:16;;;;;;;12.17;9.83;;;;;;;;;;5045511;28;20277;-71
2021/10/28 21:11:46;;;;;;;10.33;9.10;;;;;;;;;;5044512;28;20230;-71
2021/10/28 21:14:13;;;;;;;12.27;9.30;;;;;;;;;;5044974;28;20225;-71
2021/10/28 21:16:40;;;;;;;10.07;8.80;;;;;;;;;;5045479;28;20306;-72
2021/10/28 21:19:06;;;;;;;11.63;9.13;;;;;;;;;;5045202;28;20229;-72
2021/10/28 21:21:33;;;;;;;13.57;9.73;;;;;;;;;;5044737;28;20222;-72
2021/10/28 21:24:03;;;;;;;10.40;9.37;;;;;;;;;;5044846;28;20249;-71
2021/10/28 21:26:29;;;;;;;11.47;9.60;;;;;;;;;;5044794;28;20428;-72
2021/10/28 21:28:55;;;;;;;11.03;9.63;;;;;;;;;;5044159;28;20291;-71
2021/10/28 21:31:23;;;;;;;10.27;9.07;;;;;;;;;;5044441;28;20690;-71
2021/10/28 21:33:50;;;;;;;11.23;9.43;;;;;;;;;;5044712;28;20379;-71
2021/10/28 21:36:16;;;;;;;11.23;10.10;;;;;;;;;;5045532;28;20645;-72
2021/10/28 21:38:42;;;;;;;11.83;9.47;;;;;;;;;;5045559;28;20548;-71
2021/10/28 21:41:09;;;;;;;12.70;10.00;;;;;;;;;;5044532;28;20216;-71
2021/10/28 21:43:35;;;;;;;15.10;10.40;;;;;;;;;;5044294;28;20221;-72
2021/10/28 21:46:02;;;;;;;11.17;10.03;;;;;;;;;;5044587;28;20213;-72
2021/10/28 21:48:29;;;;;;;10.80;9.03;;;;;;;;;;5042817;28;20272;-71
2021/10/28 21:50:59;;;;;;;11.03;9.73;;;;;;;;;;5045016;28;20310;-71
2021/10/28 21:53:27;;;;;;;12.23;9.17;;;;;;;;;;5044918;28;20321;-71
2021/10/28 21:56:04;;;;;;;13.73;10.57;;;;;;;;;;5045352;28;20214;-71
2021/10/28 21:58:39;;;;;;;11.80;9.50;;;;;;;;;;5045403;28;20567;-72
2021/10/28 22:01:14;;;;;;;10.50;9.37;;;;;;;;;;5044898;28;20224;-71
2021/10/28 22:04:14;;;;;;;15.27;9.37;;;;;;;;;;5044305;28;20233;-72
2021/10/28 22:07:00;;;;;;;13.27;9.53;;;;;;;;;;5044738;28;20357;-71
2021/10/28 22:25:52;;;;;;;11.17;9.83;;;;;;;;;;5043701;28;20233;-71
2021/10/28 22:28:19;;;;;;;10.73;9.10;;;;;;;;;;5043422;28;20305;-72
2021/10/28 22:30:45;;;;;;;13.30;10.67;;;;;;;;;;5044305;28;20241;-72
2021/10/28 22:33:11;;;;;;;14.33;10.07;;;;;;;;;;5044273;28;20221;-71
2021/10/28 22:35:43;;;;;;;11.13;9.90;;;;;;;;;;5044988;28;20330;-71